sensor_id;sensor_type;location;lat;lon;timestamp;P1;durP1;ratioP1;P2;durP2;ratioP2
61322;SDS011;47203;48.428;11.974;2023-05-07T00:01:18;4.18;;;2.50;;
61322;SDS011;47203;48.428;11.974;2023-05-07T00:03:23;3.40;;;2.28;;
61322;SDS011;47203;48.428;11.974;2023-05-07T00:05:28;4.13;;;2.70;;
61322;SDS011;47203;48.428;11.974;2023-05-07T00:07:33;3.90;;;2.28;;
61322;SDS011;47203;48.428;11.974;2023-05-07T00:09:41;3.10;;;2.08;;
61322;SDS011;47203;48.428;11.974;2023-05-07T00:11:46;5.32;;;2.40;;
61322;SDS011;47203;48.428;11.974;2023-05-07T00:13:51;4.72;;;2.40;;
61322;SDS011;47203;48.428;11.974;2023-05-07T00:15:56;5.20;;;3.40;;
61322;SDS011;47203;48.428;11.974;2023-05-07T00:18:00;3.53;;;2.30;;
61322;SDS011;47203;48.428;11.974;2023-05-07T00:20:06;4.20;;;2.55;;
61322;SDS011;47203;48.428;11.974;2023-05-07T00:22:12;4.93;;;2.58;;
61322;SDS011;47203;48.428;11.974;2023-05-07T00:24:17;3.40;;;2.58;;
61322;SDS011;47203;48.428;11.974;2023-05-07T00:26:24;4.63;;;2.58;;
61322;SDS011;47203;48.428;11.974;2023-05-07T00:28:29;5.13;;;2.97;;
61322;SDS011;47203;48.428;11.974;2023-05-07T00:30:34;3.03;;;2.30;;
61322;SDS011;47203;48.428;11.974;2023-05-07T00:32:39;4.97;;;2.70;;
61322;SDS011;47203;48.428;11.974;2023-05-07T00:34:47;3.65;;;2.22;;
61322;SDS011;47203;48.428;11.974;2023-05-07T00:36:52;3.80;;;2.75;;
61322;SDS011;47203;48.428;11.974;2023-05-07T00:38:58;4.07;;;2.30;;
61322;SDS011;47203;48.428;11.974;2023-05-07T00:41:05;2.55;;;2.00;;
61322;SDS011;47203;48.428;11.974;2023-05-07T00:43:12;3.40;;;2.20;;
61322;SDS011;47203;48.428;11.974;2023-05-07T00:45:17;3.15;;;2.35;;
61322;SDS011;47203;48.428;11.974;2023-05-07T00:47:22;2.75;;;1.98;;
61322;SDS011;47203;48.428;11.974;2023-05-07T00:49:34;2.67;;;1.98;;
61322;SDS011;47203;48.428;11.974;2023-05-07T00:51:42;3.78;;;2.42;;
61322;SDS011;47203;48.428;11.974;2023-05-07T00:53:48;3.47;;;2.10;;
61322;SDS011;47203;48.428;11.974;2023-05-07T00:55:52;5.10;;;2.40;;
61322;SDS011;47203;48.428;11.974;2023-05-07T00:57:57;5.72;;;2.33;;
61322;SDS011;47203;48.428;11.974;2023-05-07T01:00:06;3.90;;;2.20;;
61322;SDS011;47203;48.428;11.974;2023-05-07T01:02:13;6.57;;;2.25;;
61322;SDS011;47203;48.428;11.974;2023-05-07T01:04:18;2.33;;;2.00;;
61322;SDS011;47203;48.428;11.974;2023-05-07T01:06:23;4.13;;;2.33;;
61322;SDS011;47203;48.428;11.974;2023-05-07T01:08:30;4.97;;;2.45;;
61322;SDS011;47203;48.428;11.974;2023-05-07T01:10:36;5.47;;;2.10;;
61322;SDS011;47203;48.428;11.974;2023-05-07T01:12:44;4.78;;;2.00;;
61322;SDS011;47203;48.428;11.974;2023-05-07T01:14:50;4.20;;;2.15;;
61322;SDS011;47203;48.428;11.974;2023-05-07T01:16:58;3.08;;;2.38;;
61322;SDS011;47203;48.428;11.974;2023-05-07T01:19:03;3.45;;;2.05;;
61322;SDS011;47203;48.428;11.974;2023-05-07T01:21:09;3.72;;;3.08;;
61322;SDS011;47203;48.428;11.974;2023-05-07T01:23:18;3.30;;;2.08;;
61322;SDS011;47203;48.428;11.974;2023-05-07T01:25:23;3.42;;;2.30;;
61322;SDS011;47203;48.428;11.974;2023-05-07T01:27:32;4.18;;;1.90;;
61322;SDS011;47203;48.428;11.974;2023-05-07T01:29:38;5.50;;;3.00;;
61322;SDS011;47203;48.428;11.974;2023-05-07T01:31:43;3.15;;;2.08;;
61322;SDS011;47203;48.428;11.974;2023-05-07T01:33:49;1.98;;;1.60;;
61322;SDS011;47203;48.428;11.974;2023-05-07T01:35:56;3.25;;;1.80;;
61322;SDS011;47203;48.428;11.974;2023-05-07T01:38:02;4.90;;;2.75;;
61322;SDS011;47203;48.428;11.974;2023-05-07T01:40:11;3.25;;;1.92;;
61322;SDS011;47203;48.428;11.974;2023-05-07T01:42:16;3.22;;;1.95;;
61322;SDS011;47203;48.428;11.974;2023-05-07T01:44:21;2.97;;;2.13;;
61322;SDS011;47203;48.428;11.974;2023-05-07T01:46:27;3.42;;;1.70;;
61322;SDS011;47203;48.428;11.974;2023-05-07T01:48:32;4.63;;;2.15;;
61322;SDS011;47203;48.428;11.974;2023-05-07T01:50:38;4.35;;;2.00;;
61322;SDS011;47203;48.428;11.974;2023-05-07T01:52:43;3.17;;;1.80;;
61322;SDS011;47203;48.428;11.974;2023-05-07T01:54:48;4.28;;;2.38;;
61322;SDS011;47203;48.428;11.974;2023-05-07T01:56:56;3.05;;;2.13;;
61322;SDS011;47203;48.428;11.974;2023-05-07T01:59:01;4.05;;;2.13;;
61322;SDS011;47203;48.428;11.974;2023-05-07T02:01:06;5.38;;;3.05;;
61322;SDS011;47203;48.428;11.974;2023-05-07T02:03:12;4.60;;;2.97;;
61322;SDS011;47203;48.428;11.974;2023-05-07T02:05:28;5.63;;;3.53;;
61322;SDS011;47203;48.428;11.974;2023-05-07T02:07:38;5.60;;;3.67;;
61322;SDS011;47203;48.428;11.974;2023-05-07T02:09:43;4.95;;;3.25;;
61322;SDS011;47203;48.428;11.974;2023-05-07T02:11:48;5.80;;;3.25;;
61322;SDS011;47203;48.428;11.974;2023-05-07T02:13:58;4.28;;;2.58;;
61322;SDS011;47203;48.428;11.974;2023-05-07T02:16:03;4.10;;;3.08;;
61322;SDS011;47203;48.428;11.974;2023-05-07T02:18:08;3.92;;;2.60;;
61322;SDS011;47203;48.428;11.974;2023-05-07T02:20:13;3.42;;;2.33;;
61322;SDS011;47203;48.428;11.974;2023-05-07T02:22:18;4.93;;;2.40;;
61322;SDS011;47203;48.428;11.974;2023-05-07T02:24:23;4.68;;;2.60;;
61322;SDS011;47203;48.428;11.974;2023-05-07T02:26:27;4.50;;;3.03;;
61322;SDS011;47203;48.428;11.974;2023-05-07T02:28:32;3.63;;;2.40;;
61322;SDS011;47203;48.428;11.974;2023-05-07T02:30:41;3.95;;;2.30;;
61322;SDS011;47203;48.428;11.974;2023-05-07T02:32:46;3.13;;;2.38;;
61322;SDS011;47203;48.428;11.974;2023-05-07T02:34:51;3.22;;;2.15;;
61322;SDS011;47203;48.428;11.974;2023-05-07T02:36:56;3.97;;;2.25;;
61322;SDS011;47203;48.428;11.974;2023-05-07T02:39:01;2.97;;;2.03;;
61322;SDS011;47203;48.428;11.974;2023-05-07T02:41:06;4.15;;;2.42;;
61322;SDS011;47203;48.428;11.974;2023-05-07T02:43:11;5.10;;;2.22;;
61322;SDS011;47203;48.428;11.974;2023-05-07T02:45:19;5.13;;;2.40;;
61322;SDS011;47203;48.428;11.974;2023-05-07T02:47:29;3.72;;;2.00;;
61322;SDS011;47203;48.428;11.974;2023-05-07T02:49:35;4.00;;;2.13;;
61322;SDS011;47203;48.428;11.974;2023-05-07T02:51:42;4.85;;;2.20;;
61322;SDS011;47203;48.428;11.974;2023-05-07T02:53:53;2.70;;;1.90;;
61322;SDS011;47203;48.428;11.974;2023-05-07T02:55:59;3.88;;;2.45;;
61322;SDS011;47203;48.428;11.974;2023-05-07T02:58:05;3.25;;;2.08;;
61322;SDS011;47203;48.428;11.974;2023-05-07T03:00:12;6.07;;;2.30;;
61322;SDS011;47203;48.428;11.974;2023-05-07T03:02:29;3.20;;;2.15;;
61322;SDS011;47203;48.428;11.974;2023-05-07T03:04:34;3.60;;;2.25;;
61322;SDS011;47203;48.428;11.974;2023-05-07T03:06:39;2.80;;;2.00;;
61322;SDS011;47203;48.428;11.974;2023-05-07T03:08:44;3.60;;;2.10;;
61322;SDS011;47203;48.428;11.974;2023-05-07T03:10:49;2.75;;;2.10;;
61322;SDS011;47203;48.428;11.974;2023-05-07T03:12:54;3.10;;;2.00;;
61322;SDS011;47203;48.428;11.974;2023-05-07T03:14:59;2.08;;;1.77;;
61322;SDS011;47203;48.428;11.974;2023-05-07T03:17:04;3.05;;;2.00;;
61322;SDS011;47203;48.428;11.974;2023-05-07T03:19:11;2.92;;;1.80;;
61322;SDS011;47203;48.428;11.974;2023-05-07T03:21:16;2.58;;;1.92;;
61322;SDS011;47203;48.428;11.974;2023-05-07T03:23:21;4.35;;;2.13;;
61322;SDS011;47203;48.428;11.974;2023-05-07T03:25:25;3.83;;;2.20;;
61322;SDS011;47203;48.428;11.974;2023-05-07T03:27:31;3.50;;;1.90;;
61322;SDS011;47203;48.428;11.974;2023-05-07T03:29:37;2.60;;;1.80;;
61322;SDS011;47203;48.428;11.974;2023-05-07T03:31:42;2.67;;;1.70;;
61322;SDS011;47203;48.428;11.974;2023-05-07T03:33:50;2.78;;;1.70;;
61322;SDS011;47203;48.428;11.974;2023-05-07T03:36:00;2.47;;;1.98;;
61322;SDS011;47203;48.428;11.974;2023-05-07T03:38:04;3.33;;;2.10;;
61322;SDS011;47203;48.428;11.974;2023-05-07T03:40:11;2.60;;;1.85;;
61322;SDS011;47203;48.428;11.974;2023-05-07T03:42:22;2.88;;;2.00;;
61322;SDS011;47203;48.428;11.974;2023-05-07T03:44:27;5.55;;;2.22;;
61322;SDS011;47203;48.428;11.974;2023-05-07T03:46:33;3.33;;;1.63;;
61322;SDS011;47203;48.428;11.974;2023-05-07T03:48:38;3.53;;;2.00;;
61322;SDS011;47203;48.428;11.974;2023-05-07T03:50:44;4.18;;;2.20;;
61322;SDS011;47203;48.428;11.974;2023-05-07T03:52:54;3.45;;;1.88;;
61322;SDS011;47203;48.428;11.974;2023-05-07T03:54:58;4.47;;;2.10;;
61322;SDS011;47203;48.428;11.974;2023-05-07T03:57:05;2.58;;;1.92;;
61322;SDS011;47203;48.428;11.974;2023-05-07T03:59:11;2.70;;;1.70;;
61322;SDS011;47203;48.428;11.974;2023-05-07T04:01:19;3.42;;;1.88;;
61322;SDS011;47203;48.428;11.974;2023-05-07T04:03:24;4.28;;;2.13;;
61322;SDS011;47203;48.428;11.974;2023-05-07T04:05:32;2.33;;;1.70;;
61322;SDS011;47203;48.428;11.974;2023-05-07T04:07:37;2.33;;;1.95;;
61322;SDS011;47203;48.428;11.974;2023-05-07T04:09:46;3.72;;;1.65;;
61322;SDS011;47203;48.428;11.974;2023-05-07T04:11:51;2.90;;;1.70;;
61322;SDS011;47203;48.428;11.974;2023-05-07T04:13:56;2.72;;;1.80;;
61322;SDS011;47203;48.428;11.974;2023-05-07T04:16:01;5.35;;;1.80;;
61322;SDS011;47203;48.428;11.974;2023-05-07T04:18:09;3.15;;;1.65;;
61322;SDS011;47203;48.428;11.974;2023-05-07T04:20:17;1.98;;;1.48;;
61322;SDS011;47203;48.428;11.974;2023-05-07T04:22:28;3.78;;;1.98;;
61322;SDS011;47203;48.428;11.974;2023-05-07T04:24:33;3.58;;;2.00;;
61322;SDS011;47203;48.428;11.974;2023-05-07T04:26:42;2.15;;;1.70;;
61322;SDS011;47203;48.428;11.974;2023-05-07T04:28:47;2.42;;;1.70;;
61322;SDS011;47203;48.428;11.974;2023-05-07T04:30:52;3.78;;;2.13;;
61322;SDS011;47203;48.428;11.974;2023-05-07T04:32:57;3.42;;;2.10;;
61322;SDS011;47203;48.428;11.974;2023-05-07T04:35:04;2.97;;;1.67;;
61322;SDS011;47203;48.428;11.974;2023-05-07T04:37:11;3.17;;;1.67;;
61322;SDS011;47203;48.428;11.974;2023-05-07T04:39:15;6.20;;;2.30;;
61322;SDS011;47203;48.428;11.974;2023-05-07T04:41:22;2.03;;;1.80;;
61322;SDS011;47203;48.428;11.974;2023-05-07T04:43:30;2.70;;;2.50;;
61322;SDS011;47203;48.428;11.974;2023-05-07T04:45:35;2.58;;;1.70;;
61322;SDS011;47203;48.428;11.974;2023-05-07T04:47:43;2.80;;;2.25;;
61322;SDS011;47203;48.428;11.974;2023-05-07T04:49:47;3.00;;;2.08;;
61322;SDS011;47203;48.428;11.974;2023-05-07T04:51:52;2.28;;;1.65;;
61322;SDS011;47203;48.428;11.974;2023-05-07T04:53:57;5.15;;;2.00;;
61322;SDS011;47203;48.428;11.974;2023-05-07T04:56:04;7.25;;;2.08;;
61322;SDS011;47203;48.428;11.974;2023-05-07T04:58:14;3.70;;;1.95;;
61322;SDS011;47203;48.428;11.974;2023-05-07T05:00:24;3.35;;;2.30;;
61322;SDS011;47203;48.428;11.974;2023-05-07T05:02:29;3.50;;;2.60;;
61322;SDS011;47203;48.428;11.974;2023-05-07T05:04:34;4.80;;;2.30;;
61322;SDS011;47203;48.428;11.974;2023-05-07T05:06:40;2.72;;;2.35;;
61322;SDS011;47203;48.428;11.974;2023-05-07T05:08:46;3.42;;;2.08;;
61322;SDS011;47203;48.428;11.974;2023-05-07T05:10:51;4.28;;;3.35;;
61322;SDS011;47203;48.428;11.974;2023-05-07T05:12:56;3.28;;;2.30;;
61322;SDS011;47203;48.428;11.974;2023-05-07T05:15:02;4.28;;;2.83;;
61322;SDS011;47203;48.428;11.974;2023-05-07T05:17:10;3.38;;;2.53;;
61322;SDS011;47203;48.428;11.974;2023-05-07T05:19:15;3.40;;;2.50;;
61322;SDS011;47203;48.428;11.974;2023-05-07T05:21:20;2.95;;;2.30;;
61322;SDS011;47203;48.428;11.974;2023-05-07T05:23:31;5.32;;;2.80;;
61322;SDS011;47203;48.428;11.974;2023-05-07T05:25:36;3.22;;;2.63;;
61322;SDS011;47203;48.428;11.974;2023-05-07T05:27:44;3.72;;;2.53;;
61322;SDS011;47203;48.428;11.974;2023-05-07T05:29:49;5.20;;;2.58;;
61322;SDS011;47203;48.428;11.974;2023-05-07T05:31:55;4.63;;;2.95;;
61322;SDS011;47203;48.428;11.974;2023-05-07T05:34:03;3.95;;;2.80;;
61322;SDS011;47203;48.428;11.974;2023-05-07T05:36:10;4.18;;;3.38;;
61322;SDS011;47203;48.428;11.974;2023-05-07T05:38:16;5.57;;;2.83;;
61322;SDS011;47203;48.428;11.974;2023-05-07T05:40:22;3.85;;;2.83;;
61322;SDS011;47203;48.428;11.974;2023-05-07T05:42:27;3.42;;;2.90;;
61322;SDS011;47203;48.428;11.974;2023-05-07T05:44:33;3.80;;;2.55;;
61322;SDS011;47203;48.428;11.974;2023-05-07T05:46:37;4.88;;;3.10;;
61322;SDS011;47203;48.428;11.974;2023-05-07T05:48:42;4.60;;;2.80;;
61322;SDS011;47203;48.428;11.974;2023-05-07T05:50:50;4.82;;;2.75;;
61322;SDS011;47203;48.428;11.974;2023-05-07T05:52:55;3.55;;;2.67;;
61322;SDS011;47203;48.428;11.974;2023-05-07T05:55:02;3.40;;;2.83;;
61322;SDS011;47203;48.428;11.974;2023-05-07T05:57:09;3.80;;;2.50;;
61322;SDS011;47203;48.428;11.974;2023-05-07T05:59:15;3.72;;;3.00;;
61322;SDS011;47203;48.428;11.974;2023-05-07T06:01:20;5.00;;;3.00;;
61322;SDS011;47203;48.428;11.974;2023-05-07T06:03:27;3.38;;;3.08;;
61322;SDS011;47203;48.428;11.974;2023-05-07T06:05:35;4.25;;;2.95;;
61322;SDS011;47203;48.428;11.974;2023-05-07T06:07:42;4.25;;;3.28;;
61322;SDS011;47203;48.428;11.974;2023-05-07T06:09:47;4.20;;;3.17;;
61322;SDS011;47203;48.428;11.974;2023-05-07T06:11:52;4.38;;;3.20;;
61322;SDS011;47203;48.428;11.974;2023-05-07T06:14:01;5.18;;;3.17;;
61322;SDS011;47203;48.428;11.974;2023-05-07T06:16:06;4.53;;;3.08;;
61322;SDS011;47203;48.428;11.974;2023-05-07T06:18:11;4.15;;;3.15;;
61322;SDS011;47203;48.428;11.974;2023-05-07T06:20:16;4.70;;;3.50;;
61322;SDS011;47203;48.428;11.974;2023-05-07T06:22:22;3.97;;;3.00;;
61322;SDS011;47203;48.428;11.974;2023-05-07T06:24:29;4.05;;;3.55;;
61322;SDS011;47203;48.428;11.974;2023-05-07T06:26:34;4.63;;;3.90;;
61322;SDS011;47203;48.428;11.974;2023-05-07T06:28:39;4.85;;;3.90;;
61322;SDS011;47203;48.428;11.974;2023-05-07T06:30:46;5.32;;;4.32;;
61322;SDS011;47203;48.428;11.974;2023-05-07T06:32:52;5.63;;;4.35;;
61322;SDS011;47203;48.428;11.974;2023-05-07T06:34:57;5.15;;;4.30;;
61322;SDS011;47203;48.428;11.974;2023-05-07T06:37:02;5.57;;;3.97;;
61322;SDS011;47203;48.428;11.974;2023-05-07T06:39:24;5.32;;;3.67;;
61322;SDS011;47203;48.428;11.974;2023-05-07T06:41:31;5.32;;;3.88;;
61322;SDS011;47203;48.428;11.974;2023-05-07T06:43:42;4.30;;;3.90;;
61322;SDS011;47203;48.428;11.974;2023-05-07T06:45:59;4.88;;;3.70;;
61322;SDS011;47203;48.428;11.974;2023-05-07T06:48:04;5.28;;;4.07;;
61322;SDS011;47203;48.428;11.974;2023-05-07T06:50:18;5.93;;;4.10;;
61322;SDS011;47203;48.428;11.974;2023-05-07T06:52:26;4.88;;;4.38;;
61322;SDS011;47203;48.428;11.974;2023-05-07T06:54:31;4.72;;;3.90;;
61322;SDS011;47203;48.428;11.974;2023-05-07T06:56:38;5.32;;;3.97;;
61322;SDS011;47203;48.428;11.974;2023-05-07T06:58:43;6.72;;;3.80;;
61322;SDS011;47203;48.428;11.974;2023-05-07T07:00:48;5.07;;;4.45;;
61322;SDS011;47203;48.428;11.974;2023-05-07T07:02:53;4.85;;;4.05;;
61322;SDS011;47203;48.428;11.974;2023-05-07T07:05:01;4.50;;;3.83;;
61322;SDS011;47203;48.428;11.974;2023-05-07T07:07:06;7.47;;;4.43;;
61322;SDS011;47203;48.428;11.974;2023-05-07T07:09:12;6.50;;;4.03;;
61322;SDS011;47203;48.428;11.974;2023-05-07T07:11:17;4.85;;;3.22;;
61322;SDS011;47203;48.428;11.974;2023-05-07T07:13:25;5.50;;;3.42;;
61322;SDS011;47203;48.428;11.974;2023-05-07T07:15:30;4.57;;;3.10;;
61322;SDS011;47203;48.428;11.974;2023-05-07T07:17:35;4.78;;;3.70;;
61322;SDS011;47203;48.428;11.974;2023-05-07T07:19:40;4.32;;;3.55;;
61322;SDS011;47203;48.428;11.974;2023-05-07T07:21:45;4.47;;;2.90;;
61322;SDS011;47203;48.428;11.974;2023-05-07T07:23:50;3.85;;;3.22;;
61322;SDS011;47203;48.428;11.974;2023-05-07T07:25:55;4.55;;;3.15;;
61322;SDS011;47203;48.428;11.974;2023-05-07T07:28:01;4.13;;;3.17;;
61322;SDS011;47203;48.428;11.974;2023-05-07T07:30:09;4.72;;;2.88;;
61322;SDS011;47203;48.428;11.974;2023-05-07T07:32:17;5.38;;;3.22;;
61322;SDS011;47203;48.428;11.974;2023-05-07T07:34:22;3.35;;;2.72;;
61322;SDS011;47203;48.428;11.974;2023-05-07T07:36:27;3.70;;;2.88;;
61322;SDS011;47203;48.428;11.974;2023-05-07T07:38:47;5.20;;;3.22;;
61322;SDS011;47203;48.428;11.974;2023-05-07T07:40:52;4.80;;;3.25;;
61322;SDS011;47203;48.428;11.974;2023-05-07T07:42:58;4.60;;;2.80;;
61322;SDS011;47203;48.428;11.974;2023-05-07T07:45:04;4.50;;;3.03;;
61322;SDS011;47203;48.428;11.974;2023-05-07T07:47:16;4.53;;;2.85;;
61322;SDS011;47203;48.428;11.974;2023-05-07T07:49:23;4.43;;;2.67;;
61322;SDS011;47203;48.428;11.974;2023-05-07T07:51:29;3.22;;;2.60;;
61322;SDS011;47203;48.428;11.974;2023-05-07T07:53:35;3.78;;;2.78;;
61322;SDS011;47203;48.428;11.974;2023-05-07T07:55:40;4.30;;;2.88;;
61322;SDS011;47203;48.428;11.974;2023-05-07T07:57:48;4.97;;;2.83;;
61322;SDS011;47203;48.428;11.974;2023-05-07T07:59:53;3.90;;;2.80;;
61322;SDS011;47203;48.428;11.974;2023-05-07T08:01:58;4.75;;;3.33;;
61322;SDS011;47203;48.428;11.974;2023-05-07T08:04:06;2.70;;;1.90;;
61322;SDS011;47203;48.428;11.974;2023-05-07T08:06:15;6.75;;;3.90;;
61322;SDS011;47203;48.428;11.974;2023-05-07T08:08:20;3.90;;;3.17;;
61322;SDS011;47203;48.428;11.974;2023-05-07T08:10:27;3.20;;;2.55;;
61322;SDS011;47203;48.428;11.974;2023-05-07T08:12:39;4.10;;;3.15;;
61322;SDS011;47203;48.428;11.974;2023-05-07T08:14:45;4.68;;;2.83;;
61322;SDS011;47203;48.428;11.974;2023-05-07T08:16:50;3.88;;;2.97;;
61322;SDS011;47203;48.428;11.974;2023-05-07T08:18:56;3.33;;;2.70;;
61322;SDS011;47203;48.428;11.974;2023-05-07T08:21:04;3.60;;;2.85;;
61322;SDS011;47203;48.428;11.974;2023-05-07T08:23:09;3.92;;;2.92;;
61322;SDS011;47203;48.428;11.974;2023-05-07T08:25:15;3.72;;;2.58;;
61322;SDS011;47203;48.428;11.974;2023-05-07T08:27:20;3.88;;;1.90;;
61322;SDS011;47203;48.428;11.974;2023-05-07T08:29:25;6.03;;;3.03;;
61322;SDS011;47203;48.428;11.974;2023-05-07T08:31:31;4.13;;;3.05;;
61322;SDS011;47203;48.428;11.974;2023-05-07T08:33:37;4.40;;;2.55;;
61322;SDS011;47203;48.428;11.974;2023-05-07T08:35:42;2.85;;;2.35;;
61322;SDS011;47203;48.428;11.974;2023-05-07T08:37:51;3.63;;;2.88;;
61322;SDS011;47203;48.428;11.974;2023-05-07T08:39:57;3.40;;;3.08;;
61322;SDS011;47203;48.428;11.974;2023-05-07T08:42:06;5.55;;;3.30;;
61322;SDS011;47203;48.428;11.974;2023-05-07T08:44:14;6.30;;;2.90;;
61322;SDS011;47203;48.428;11.974;2023-05-07T08:46:21;4.32;;;3.03;;
61322;SDS011;47203;48.428;11.974;2023-05-07T08:48:29;4.20;;;3.60;;
61322;SDS011;47203;48.428;11.974;2023-05-07T08:50:46;4.18;;;2.92;;
61322;SDS011;47203;48.428;11.974;2023-05-07T08:52:54;3.58;;;2.65;;
61322;SDS011;47203;48.428;11.974;2023-05-07T08:54:59;7.10;;;3.33;;
61322;SDS011;47203;48.428;11.974;2023-05-07T08:57:06;5.40;;;3.22;;
61322;SDS011;47203;48.428;11.974;2023-05-07T08:59:12;3.83;;;3.25;;
61322;SDS011;47203;48.428;11.974;2023-05-07T09:01:18;5.18;;;3.72;;
61322;SDS011;47203;48.428;11.974;2023-05-07T09:03:26;4.00;;;3.20;;
61322;SDS011;47203;48.428;11.974;2023-05-07T09:05:32;3.53;;;2.90;;
61322;SDS011;47203;48.428;11.974;2023-05-07T09:07:40;4.18;;;3.35;;
61322;SDS011;47203;48.428;11.974;2023-05-07T09:09:50;4.65;;;3.20;;
61322;SDS011;47203;48.428;11.974;2023-05-07T09:11:56;4.15;;;3.35;;
61322;SDS011;47203;48.428;11.974;2023-05-07T09:14:06;3.88;;;3.05;;
61322;SDS011;47203;48.428;11.974;2023-05-07T09:16:15;4.38;;;3.55;;
61322;SDS011;47203;48.428;11.974;2023-05-07T09:18:20;4.53;;;3.50;;
61322;SDS011;47203;48.428;11.974;2023-05-07T09:20:26;3.67;;;3.13;;
61322;SDS011;47203;48.428;11.974;2023-05-07T09:22:32;4.20;;;3.40;;
61322;SDS011;47203;48.428;11.974;2023-05-07T09:24:40;3.28;;;2.97;;
61322;SDS011;47203;48.428;11.974;2023-05-07T09:26:48;4.28;;;2.88;;
61322;SDS011;47203;48.428;11.974;2023-05-07T09:28:53;3.63;;;2.95;;
61322;SDS011;47203;48.428;11.974;2023-05-07T09:30:58;4.20;;;3.10;;
61322;SDS011;47203;48.428;11.974;2023-05-07T09:33:03;3.78;;;3.40;;
61322;SDS011;47203;48.428;11.974;2023-05-07T09:35:14;3.80;;;3.40;;
61322;SDS011;47203;48.428;11.974;2023-05-07T09:37:26;4.22;;;3.75;;
61322;SDS011;47203;48.428;11.974;2023-05-07T09:39:40;5.13;;;3.63;;
61322;SDS011;47203;48.428;11.974;2023-05-07T09:41:50;3.35;;;2.78;;
61322;SDS011;47203;48.428;11.974;2023-05-07T09:44:04;4.45;;;2.90;;
61322;SDS011;47203;48.428;11.974;2023-05-07T09:46:14;3.50;;;3.08;;
61322;SDS011;47203;48.428;11.974;2023-05-07T09:48:26;3.60;;;2.80;;
61322;SDS011;47203;48.428;11.974;2023-05-07T09:50:35;5.40;;;3.30;;
61322;SDS011;47203;48.428;11.974;2023-05-07T09:52:45;3.13;;;2.25;;
61322;SDS011;47203;48.428;11.974;2023-05-07T09:54:51;3.13;;;2.65;;
61322;SDS011;47203;48.428;11.974;2023-05-07T09:57:03;3.97;;;2.80;;
61322;SDS011;47203;48.428;11.974;2023-05-07T09:59:09;4.20;;;3.30;;
61322;SDS011;47203;48.428;11.974;2023-05-07T10:01:18;5.45;;;3.80;;
61322;SDS011;47203;48.428;11.974;2023-05-07T10:03:25;4.53;;;3.28;;
61322;SDS011;47203;48.428;11.974;2023-05-07T10:05:38;4.35;;;3.20;;
61322;SDS011;47203;48.428;11.974;2023-05-07T10:07:44;3.55;;;2.65;;
61322;SDS011;47203;48.428;11.974;2023-05-07T10:09:49;3.38;;;2.22;;
61322;SDS011;47203;48.428;11.974;2023-05-07T10:12:09;3.13;;;2.38;;
61322;SDS011;47203;48.428;11.974;2023-05-07T10:14:14;2.63;;;2.33;;
61322;SDS011;47203;48.428;11.974;2023-05-07T10:16:20;3.65;;;2.58;;
61322;SDS011;47203;48.428;11.974;2023-05-07T10:18:25;3.13;;;2.42;;
61322;SDS011;47203;48.428;11.974;2023-05-07T10:20:40;3.85;;;2.45;;
61322;SDS011;47203;48.428;11.974;2023-05-07T10:22:48;3.80;;;2.72;;
61322;SDS011;47203;48.428;11.974;2023-05-07T10:27:12;2.65;;;1.83;;
61322;SDS011;47203;48.428;11.974;2023-05-07T10:29:28;2.95;;;2.17;;
61322;SDS011;47203;48.428;11.974;2023-05-07T10:31:49;4.97;;;2.05;;
61322;SDS011;47203;48.428;11.974;2023-05-07T10:34:00;2.60;;;1.90;;
61322;SDS011;47203;48.428;11.974;2023-05-07T10:36:07;4.65;;;1.77;;
61322;SDS011;47203;48.428;11.974;2023-05-07T10:38:12;3.30;;;1.92;;
61322;SDS011;47203;48.428;11.974;2023-05-07T10:40:19;2.65;;;2.33;;
61322;SDS011;47203;48.428;11.974;2023-05-07T10:42:29;2.95;;;2.17;;
61322;SDS011;47203;48.428;11.974;2023-05-07T10:44:34;3.13;;;2.10;;
61322;SDS011;47203;48.428;11.974;2023-05-07T10:46:44;2.83;;;2.05;;
61322;SDS011;47203;48.428;11.974;2023-05-07T10:49:12;2.13;;;1.70;;
61322;SDS011;47203;48.428;11.974;2023-05-07T10:51:26;3.17;;;1.75;;
61322;SDS011;47203;48.428;11.974;2023-05-07T10:53:39;3.17;;;1.85;;
61322;SDS011;47203;48.428;11.974;2023-05-07T10:55:51;2.88;;;2.03;;
61322;SDS011;47203;48.428;11.974;2023-05-07T11:01:05;2.95;;;1.85;;
61322;SDS011;47203;48.428;11.974;2023-05-07T11:03:15;3.63;;;2.30;;
61322;SDS011;47203;48.428;11.974;2023-05-07T11:05:34;3.33;;;1.83;;
61322;SDS011;47203;48.428;11.974;2023-05-07T11:07:53;2.40;;;1.60;;
61322;SDS011;47203;48.428;11.974;2023-05-07T11:10:06;3.45;;;2.05;;
61322;SDS011;47203;48.428;11.974;2023-05-07T11:12:47;1.52;;;1.35;;
61322;SDS011;47203;48.428;11.974;2023-05-07T11:18:03;3.30;;;1.65;;
61322;SDS011;47203;48.428;11.974;2023-05-07T11:20:12;2.90;;;1.73;;
61322;SDS011;47203;48.428;11.974;2023-05-07T11:22:36;2.00;;;1.52;;
61322;SDS011;47203;48.428;11.974;2023-05-07T11:24:58;2.53;;;1.60;;
61322;SDS011;47203;48.428;11.974;2023-05-07T11:27:04;2.15;;;1.40;;
61322;SDS011;47203;48.428;11.974;2023-05-07T11:29:10;2.13;;;1.48;;
61322;SDS011;47203;48.428;11.974;2023-05-07T11:31:22;3.03;;;1.60;;
61322;SDS011;47203;48.428;11.974;2023-05-07T11:33:33;2.20;;;1.40;;
61322;SDS011;47203;48.428;11.974;2023-05-07T11:35:41;1.90;;;1.50;;
61322;SDS011;47203;48.428;11.974;2023-05-07T11:37:48;2.17;;;1.45;;
61322;SDS011;47203;48.428;11.974;2023-05-07T11:40:01;2.13;;;1.50;;
61322;SDS011;47203;48.428;11.974;2023-05-07T11:42:14;2.20;;;1.33;;
61322;SDS011;47203;48.428;11.974;2023-05-07T11:44:42;1.50;;;1.07;;
61322;SDS011;47203;48.428;11.974;2023-05-07T11:46:52;1.15;;;0.93;;
61322;SDS011;47203;48.428;11.974;2023-05-07T11:48:57;1.95;;;1.23;;
61322;SDS011;47203;48.428;11.974;2023-05-07T11:51:02;1.60;;;1.20;;
61322;SDS011;47203;48.428;11.974;2023-05-07T11:53:10;1.85;;;1.10;;
61322;SDS011;47203;48.428;11.974;2023-05-07T11:55:17;2.10;;;1.27;;
61322;SDS011;47203;48.428;11.974;2023-05-07T11:57:24;2.55;;;1.30;;
61322;SDS011;47203;48.428;11.974;2023-05-07T11:59:30;1.98;;;1.13;;
61322;SDS011;47203;48.428;11.974;2023-05-07T12:01:35;2.00;;;1.40;;
61322;SDS011;47203;48.428;11.974;2023-05-07T12:03:43;2.38;;;1.35;;
61322;SDS011;47203;48.428;11.974;2023-05-07T12:05:49;1.55;;;1.20;;
61322;SDS011;47203;48.428;11.974;2023-05-07T12:07:55;2.08;;;1.60;;
61322;SDS011;47203;48.428;11.974;2023-05-07T12:10:03;1.63;;;1.17;;
61322;SDS011;47203;48.428;11.974;2023-05-07T12:12:09;2.00;;;1.40;;
61322;SDS011;47203;48.428;11.974;2023-05-07T12:14:15;2.75;;;1.38;;
61322;SDS011;47203;48.428;11.974;2023-05-07T12:16:21;2.30;;;1.23;;
61322;SDS011;47203;48.428;11.974;2023-05-07T12:18:27;2.88;;;1.13;;
61322;SDS011;47203;48.428;11.974;2023-05-07T12:20:35;1.67;;;1.30;;
61322;SDS011;47203;48.428;11.974;2023-05-07T12:22:41;2.55;;;1.48;;
61322;SDS011;47203;48.428;11.974;2023-05-07T12:24:46;3.08;;;1.35;;
61322;SDS011;47203;48.428;11.974;2023-05-07T12:26:52;3.38;;;1.23;;
61322;SDS011;47203;48.428;11.974;2023-05-07T12:28:57;2.13;;;1.30;;
61322;SDS011;47203;48.428;11.974;2023-05-07T12:31:02;1.63;;;1.20;;
61322;SDS011;47203;48.428;11.974;2023-05-07T12:33:07;1.67;;;1.33;;
61322;SDS011;47203;48.428;11.974;2023-05-07T12:35:12;2.72;;;1.50;;
61322;SDS011;47203;48.428;11.974;2023-05-07T12:37:22;2.63;;;1.27;;
61322;SDS011;47203;48.428;11.974;2023-05-07T12:39:32;2.03;;;1.38;;
61322;SDS011;47203;48.428;11.974;2023-05-07T12:41:51;2.28;;;1.05;;
61322;SDS011;47203;48.428;11.974;2023-05-07T12:43:57;1.73;;;1.20;;